createdAt,value
2018-06-08T00:01:34.604Z,46.70
2018-06-08T00:04:02.139Z,46.65
2018-06-08T00:06:29.699Z,46.75
2018-06-08T00:08:57.247Z,47.12
2018-06-08T00:11:24.811Z,46.81
2018-06-08T00:13:52.386Z,47.33
2018-06-08T00:16:19.944Z,46.76
2018-06-08T00:18:47.478Z,46.52
2018-06-08T00:21:15.102Z,46.77
2018-06-08T00:23:42.653Z,46.71
2018-06-08T00:26:10.198Z,46.43
2018-06-08T00:28:37.810Z,46.77
2018-06-08T00:31:05.347Z,46.89
2018-06-08T00:33:32.901Z,46.67
2018-06-08T00:36:00.471Z,47.19
2018-06-08T00:38:28.035Z,46.65
2018-06-08T00:40:55.559Z,46.96
2018-06-08T00:43:23.102Z,47.25
2018-06-08T00:45:50.674Z,47.08
2018-06-08T00:48:18.215Z,47.30
2018-06-08T00:50:52.427Z,47.70
2018-06-08T00:53:19.979Z,47.55
2018-06-08T00:55:47.535Z,47.61
2018-06-08T00:58:15.059Z,46.91
2018-06-08T01:00:42.627Z,46.78
2018-06-08T01:03:10.188Z,47.13
2018-06-08T01:05:37.725Z,47.56
2018-06-08T01:08:05.302Z,48.02
2018-06-08T01:10:32.818Z,48.17
2018-06-08T01:13:00.395Z,48.08
2018-06-08T01:15:28.015Z,48.00
2018-06-08T01:17:55.561Z,47.97
2018-06-08T01:20:23.095Z,48.08
2018-06-08T01:22:50.643Z,48.66
2018-06-08T01:25:18.179Z,48.85
2018-06-08T01:27:45.711Z,48.32
2018-06-08T01:30:13.253Z,48.46
2018-06-08T01:32:40.796Z,48.13
2018-06-08T01:35:08.356Z,48.26
2018-06-08T01:37:35.873Z,48.41
2018-06-08T01:40:03.466Z,48.68
2018-06-08T01:42:31.019Z,49.15
2018-06-08T01:44:58.606Z,49.01
2018-06-08T01:47:26.159Z,49.16
2018-06-08T01:49:53.717Z,48.97
2018-06-08T01:52:21.247Z,49.68
2018-06-08T01:54:48.815Z,50.05
2018-06-08T01:57:16.402Z,49.86
2018-06-08T01:59:43.978Z,49.78
2018-06-08T02:02:11.540Z,50.35
2018-06-08T02:04:39.083Z,50.19
2018-06-08T02:07:06.627Z,50.44
2018-06-08T02:09:34.174Z,50.59
2018-06-08T02:12:01.707Z,50.72
2018-06-08T02:14:29.227Z,50.94
2018-06-08T02:16:56.746Z,50.96
2018-06-08T02:19:24.277Z,51.36
2018-06-08T02:21:51.791Z,51.39
2018-06-08T02:24:19.357Z,50.89
2018-06-08T02:26:46.875Z,51.30
2018-06-08T02:29:14.410Z,51.29
2018-06-08T02:31:41.940Z,51.22
2018-06-08T02:34:09.506Z,51.32
2018-06-08T02:36:37.035Z,51.85
2018-06-08T02:39:06.970Z,51.57
2018-06-08T02:41:34.623Z,51.79
2018-06-08T02:44:02.159Z,51.81
2018-06-08T02:46:29.696Z,52.53
2018-06-08T02:48:57.226Z,52.00
2018-06-08T02:51:24.801Z,51.79
2018-06-08T02:53:52.322Z,52.52
2018-06-08T02:56:19.854Z,51.93
2018-06-08T03:01:21.619Z,51.48
2018-06-08T03:03:49.173Z,51.45
2018-06-08T03:06:16.703Z,52.25
2018-06-08T03:08:44.266Z,52.05
2018-06-08T03:11:11.794Z,52.34
2018-06-08T03:13:39.366Z,52.18
2018-06-08T03:16:06.890Z,51.87
2018-06-08T03:18:34.409Z,51.89
2018-06-08T03:21:01.922Z,51.34
2018-06-08T03:23:29.473Z,50.67
2018-06-08T03:25:57.006Z,50.65
2018-06-08T03:28:24.514Z,50.93
2018-06-08T03:30:52.070Z,51.39
2018-06-08T03:33:19.594Z,50.89
2018-06-08T03:35:47.133Z,51.19
2018-06-08T03:38:14.678Z,51.66
2018-06-08T03:40:42.237Z,51.57
2018-06-08T03:43:09.775Z,51.69
2018-06-08T03:45:37.351Z,51.65
2018-06-08T03:48:05.124Z,51.96
2018-06-08T03:50:32.672Z,52.15
2018-06-08T03:53:00.248Z,51.71
2018-06-08T03:55:27.765Z,51.42
2018-06-08T03:57:55.322Z,50.98
2018-06-08T04:00:22.859Z,50.76
2018-06-08T04:02:50.421Z,51.05
2018-06-08T04:05:17.950Z,51.00
2018-06-08T04:07:45.511Z,51.29
2018-06-08T04:10:13.018Z,51.47
2018-06-08T04:12:40.547Z,50.79
2018-06-08T04:15:08.082Z,51.11
2018-06-08T04:17:35.606Z,51.02
2018-06-08T04:20:03.272Z,51.14
2018-06-08T04:22:30.786Z,50.68
2018-06-08T04:24:58.376Z,50.62
2018-06-08T04:27:25.883Z,50.97
2018-06-08T04:29:53.415Z,50.55
2018-06-08T04:32:20.937Z,51.03
2018-06-08T04:34:48.504Z,51.49
2018-06-08T04:37:16.035Z,50.70
2018-06-08T04:39:43.560Z,50.78
2018-06-08T04:42:11.097Z,51.41
2018-06-08T04:44:38.651Z,49.76
2018-06-08T04:47:06.239Z,50.50
2018-06-08T04:49:33.761Z,50.22
2018-06-08T04:52:01.317Z,50.43
2018-06-08T04:54:28.854Z,50.78
2018-06-08T04:56:56.406Z,51.68
2018-06-08T04:59:23.952Z,51.20
2018-06-08T05:01:51.474Z,51.39
2018-06-08T05:04:19.014Z,51.43
2018-06-08T05:06:46.557Z,51.35
2018-06-08T05:09:14.078Z,50.10
2018-06-08T05:11:41.591Z,49.97
2018-06-08T05:14:09.134Z,49.99
2018-06-08T05:16:36.644Z,49.90
2018-06-08T05:19:04.290Z,49.87
2018-06-08T05:21:32.733Z,49.38
2018-06-08T05:24:00.504Z,49.00
2018-06-08T05:26:28.387Z,48.96
2018-06-08T05:28:56.167Z,48.88
2018-06-08T05:31:23.693Z,48.98
2018-06-08T05:33:51.202Z,49.30
2018-06-08T05:36:18.731Z,48.72
2018-06-08T05:38:46.238Z,48.55
2018-06-08T05:41:13.836Z,47.90
2018-06-08T05:43:41.358Z,47.51
2018-06-08T05:46:08.878Z,47.82
2018-06-08T05:48:36.477Z,47.88
2018-06-08T05:51:03.944Z,47.88
2018-06-08T05:53:31.602Z,47.37
2018-06-08T05:55:59.101Z,47.38
2018-06-08T05:58:26.637Z,47.03
2018-06-08T06:00:54.161Z,47.04
2018-06-08T06:03:21.685Z,47.05
2018-06-08T06:05:49.200Z,46.63
2018-06-08T06:08:16.698Z,46.63
2018-06-08T06:10:44.241Z,46.49
2018-06-08T06:13:11.735Z,46.20
2018-06-08T06:15:39.310Z,46.23
2018-06-08T06:18:06.824Z,46.27
2018-06-08T06:20:34.382Z,45.51
2018-06-08T06:23:01.923Z,45.27
2018-06-08T06:25:29.509Z,45.52
2018-06-08T06:27:57.022Z,44.80
2018-06-08T06:30:24.549Z,45.30
2018-06-08T06:32:52.085Z,45.06
2018-06-08T06:35:19.650Z,44.56
2018-06-08T06:37:47.222Z,43.90
2018-06-08T06:40:14.822Z,43.55
2018-06-08T06:42:42.358Z,43.15
2018-06-08T06:45:09.907Z,42.85
2018-06-08T06:47:37.434Z,42.79
2018-06-08T06:50:05.066Z,43.05
2018-06-08T06:52:32.610Z,43.18
2018-06-08T06:55:00.178Z,42.62
2018-06-08T06:57:27.698Z,42.86
2018-06-08T06:59:55.244Z,43.04
2018-06-08T07:02:22.762Z,43.25
2018-06-08T07:04:50.305Z,42.97
2018-06-08T07:07:17.818Z,42.97
2018-06-08T07:09:45.357Z,42.14
2018-06-08T07:12:14.080Z,42.36
2018-06-08T07:14:41.621Z,41.67
2018-06-08T07:17:09.133Z,41.92
2018-06-08T07:19:36.659Z,41.52
2018-06-08T07:22:04.207Z,40.82
2018-06-08T07:24:31.707Z,40.41
2018-06-08T07:26:59.246Z,40.88
2018-06-08T07:29:26.773Z,39.96
2018-06-08T07:31:54.357Z,39.10
2018-06-08T07:34:21.903Z,38.37
2018-06-08T07:36:49.450Z,38.79
2018-06-08T07:39:16.998Z,37.37
2018-06-08T07:41:44.526Z,37.59
2018-06-08T07:44:12.078Z,37.68
2018-06-08T07:46:39.595Z,37.80
2018-06-08T07:49:07.138Z,37.40
2018-06-08T07:51:34.658Z,37.27
2018-06-08T07:54:02.189Z,36.45
2018-06-08T07:56:29.710Z,35.98
2018-06-08T07:58:57.237Z,35.97
2018-06-08T08:01:24.746Z,35.65
2018-06-08T08:03:52.278Z,35.51
2018-06-08T08:06:19.794Z,35.08
2018-06-08T08:08:47.285Z,34.68
2018-06-08T08:11:14.825Z,34.34
2018-06-08T08:13:42.327Z,33.45
2018-06-08T08:16:09.882Z,35.09
2018-06-08T08:18:37.454Z,34.55
2018-06-08T08:21:05.036Z,34.87
2018-06-08T08:23:32.543Z,34.92
2018-06-08T08:26:00.102Z,34.88
2018-06-08T08:28:27.603Z,34.66
2018-06-08T08:30:55.138Z,34.21
2018-06-08T08:33:22.706Z,33.46
2018-06-08T08:35:50.223Z,34.77
2018-06-08T08:38:17.860Z,33.92
2018-06-08T08:40:45.414Z,33.70
2018-06-08T08:43:12.974Z,33.46
2018-06-08T08:45:40.584Z,33.44
2018-06-08T08:48:08.102Z,32.85
2018-06-08T08:50:35.626Z,32.73
2018-06-08T08:53:03.202Z,33.17
2018-06-08T08:55:30.734Z,31.76
2018-06-08T08:57:58.255Z,31.48
2018-06-08T09:00:25.841Z,30.76
2018-06-08T09:02:53.355Z,30.85
2018-06-08T09:05:20.914Z,29.20
2018-06-08T09:07:48.415Z,28.93
2018-06-08T09:10:15.957Z,27.81
2018-06-08T09:12:43.467Z,26.36
2018-06-08T09:15:10.995Z,26.72
2018-06-08T09:17:38.530Z,26.29
2018-06-08T09:20:06.074Z,25.37
2018-06-08T09:22:33.594Z,25.44
2018-06-08T09:25:01.134Z,25.73
2018-06-08T09:27:28.678Z,27.04
2018-06-08T09:29:56.192Z,28.27
2018-06-08T09:32:23.774Z,29.33
2018-06-08T09:34:51.823Z,30.03
2018-06-08T09:37:19.329Z,30.70
2018-06-08T09:39:46.860Z,30.91
2018-06-08T09:42:14.361Z,31.52
2018-06-08T09:44:41.895Z,31.36
2018-06-08T09:47:09.431Z,31.42
2018-06-08T09:49:37.017Z,31.61
2018-06-08T09:52:04.542Z,31.58
2018-06-08T09:54:32.074Z,30.63
2018-06-08T09:56:59.584Z,29.46
2018-06-08T09:59:27.143Z,28.83
2018-06-08T10:01:54.691Z,26.53
2018-06-08T10:04:22.287Z,26.70
2018-06-08T10:06:49.861Z,26.67
2018-06-08T10:09:17.370Z,26.11
2018-06-08T10:11:45.866Z,25.61
2018-06-08T10:14:13.370Z,26.07
2018-06-08T10:16:40.996Z,24.86
2018-06-08T10:19:08.470Z,25.04
2018-06-08T10:21:36.039Z,25.17
2018-06-08T10:24:03.607Z,22.91
2018-06-08T10:26:31.121Z,22.83
2018-06-08T10:28:58.666Z,23.46
2018-06-08T10:31:26.218Z,23.57
2018-06-08T10:33:53.758Z,23.21
2018-06-08T10:36:21.314Z,22.38
2018-06-08T10:38:48.875Z,22.86
2018-06-08T10:41:16.386Z,22.34
2018-06-08T10:43:43.958Z,20.56
2018-06-08T10:46:11.458Z,19.41
2018-06-08T10:48:38.998Z,18.86
2018-06-08T10:51:06.503Z,19.04
2018-06-08T10:53:34.022Z,18.85
2018-06-08T10:56:01.566Z,18.37
2018-06-08T10:58:29.106Z,19.19
2018-06-08T11:00:56.662Z,18.74
2018-06-08T11:03:24.174Z,17.84
2018-06-08T11:05:51.900Z,17.56
2018-06-08T11:08:19.418Z,18.93
2018-06-08T11:10:46.978Z,17.74
2018-06-08T11:13:14.501Z,18.30
2018-06-08T11:15:42.012Z,16.96
2018-06-08T11:18:09.545Z,17.31
2018-06-08T11:20:37.220Z,17.44
2018-06-08T11:23:04.777Z,17.44
2018-06-08T11:25:32.330Z,16.28
2018-06-08T11:27:59.862Z,16.12
2018-06-08T11:30:27.442Z,15.91
2018-06-08T11:32:55.002Z,16.03
2018-06-08T11:35:22.511Z,16.75
2018-06-08T11:37:50.039Z,16.07
2018-06-08T11:40:17.553Z,16.39
2018-06-08T11:42:45.067Z,15.76
2018-06-08T11:45:12.600Z,15.93
2018-06-08T11:47:40.118Z,15.27
2018-06-08T11:50:07.677Z,14.51
2018-06-08T11:52:35.219Z,14.32
2018-06-08T11:55:02.775Z,14.98
2018-06-08T11:57:30.287Z,15.13
2018-06-08T11:59:57.803Z,14.86
2018-06-08T12:02:25.354Z,14.98
2018-06-08T12:04:52.869Z,14.91
2018-06-08T12:07:20.434Z,14.28
2018-06-08T12:09:47.955Z,13.91
2018-06-08T12:12:15.514Z,14.73
2018-06-08T12:14:43.026Z,14.37
2018-06-08T12:17:10.615Z,14.22
2018-06-08T12:19:38.081Z,14.34
2018-06-08T12:22:05.581Z,14.09
2018-06-08T12:24:33.098Z,13.96
2018-06-08T12:27:00.636Z,13.04
2018-06-08T12:29:28.225Z,12.84
2018-06-08T12:31:55.725Z,12.48
2018-06-08T12:34:23.258Z,11.70
2018-06-08T12:36:50.757Z,12.36
2018-06-08T12:39:18.298Z,12.18
2018-06-08T12:41:45.830Z,13.33
2018-06-08T12:44:13.357Z,14.81
2018-06-08T12:46:40.854Z,15.63
2018-06-08T12:49:08.379Z,15.34
2018-06-08T12:51:35.906Z,15.80
2018-06-08T12:54:03.444Z,15.59
2018-06-08T12:56:31.013Z,16.66
2018-06-08T12:58:58.514Z,15.96
2018-06-08T13:01:26.055Z,15.96
2018-06-08T13:03:53.586Z,15.59
2018-06-08T13:06:21.141Z,15.18
2018-06-08T13:08:48.652Z,15.70
2018-06-08T13:11:16.210Z,15.69
2018-06-08T13:13:43.766Z,16.45
2018-06-08T13:16:11.296Z,16.54
2018-06-08T13:18:38.828Z,15.71
2018-06-08T13:21:06.362Z,15.57
2018-06-08T13:23:33.904Z,14.73
2018-06-08T13:26:01.433Z,14.51
2018-06-08T13:28:28.994Z,14.42
2018-06-08T13:30:56.534Z,15.05
2018-06-08T13:33:24.039Z,15.16
2018-06-08T13:35:51.579Z,16.42
2018-06-08T13:38:19.107Z,17.51
2018-06-08T13:40:46.654Z,16.51
2018-06-08T13:43:14.166Z,16.27
2018-06-08T13:45:41.692Z,16.92
2018-06-08T13:48:09.206Z,16.85
2018-06-08T13:50:36.719Z,16.17
2018-06-08T13:53:04.670Z,15.17
2018-06-08T13:55:32.410Z,15.17
2018-06-08T13:57:59.962Z,14.67
2018-06-08T14:00:27.611Z,15.56
2018-06-08T14:02:55.269Z,15.29
2018-06-08T14:05:22.784Z,15.13
2018-06-08T14:07:50.311Z,14.41
2018-06-08T14:10:17.871Z,14.31
2018-06-08T14:12:46.505Z,15.86
2018-06-08T14:15:14.061Z,15.96
2018-06-08T14:17:41.718Z,16.44
2018-06-08T14:20:09.262Z,18.60
2018-06-08T14:22:36.786Z,18.79
2018-06-08T14:25:04.350Z,17.71
2018-06-08T14:27:31.902Z,17.50
2018-06-08T14:29:59.460Z,17.06
2018-06-08T14:32:26.972Z,16.18
2018-06-08T14:34:54.626Z,15.89
2018-06-08T14:37:22.130Z,17.19
2018-06-08T14:39:49.662Z,17.15
2018-06-08T14:42:17.190Z,16.29
2018-06-08T14:44:44.762Z,15.81
2018-06-08T14:47:12.478Z,16.17
2018-06-08T14:49:39.962Z,16.44
2018-06-08T14:52:07.523Z,16.72
2018-06-08T14:54:35.031Z,16.60
2018-06-08T14:57:02.562Z,17.16
2018-06-08T14:59:30.071Z,17.06
2018-06-08T15:01:57.694Z,17.61
2018-06-08T15:04:25.308Z,18.41
2018-06-08T15:06:52.998Z,18.64
2018-06-08T15:09:21.530Z,19.53
2018-06-08T15:11:49.267Z,20.54
2018-06-08T15:14:17.030Z,19.60
2018-06-08T15:16:44.835Z,20.30
2018-06-08T15:19:12.560Z,20.73
2018-06-08T15:21:40.310Z,21.42
2018-06-08T15:24:08.947Z,21.36
2018-06-08T15:26:36.574Z,21.81
2018-06-08T15:29:04.585Z,22.61
2018-06-08T15:31:32.322Z,23.31
2018-06-08T15:33:59.913Z,23.49
2018-06-08T15:36:27.572Z,23.29
2018-06-08T15:38:55.135Z,23.21
2018-06-08T15:41:22.706Z,24.42
2018-06-08T15:43:50.480Z,24.66
2018-06-08T15:46:18.026Z,25.24
2018-06-08T15:48:46.051Z,24.32
2018-06-08T15:51:13.686Z,25.20
2018-06-08T15:53:41.294Z,25.36
2018-06-08T15:56:08.809Z,25.52
2018-06-08T15:58:36.370Z,25.99
2018-06-08T16:01:04.079Z,25.21
2018-06-08T16:03:31.850Z,24.89
2018-06-08T16:05:59.537Z,25.28
2018-06-08T16:08:27.206Z,26.08
2018-06-08T16:10:54.951Z,25.67
2018-06-08T16:13:22.669Z,25.31
2018-06-08T16:15:50.310Z,25.54
2018-06-08T16:18:17.953Z,25.56
2018-06-08T16:20:45.474Z,25.53
2018-06-08T16:23:13.025Z,26.23
2018-06-08T16:25:40.618Z,25.53
2018-06-08T16:28:08.302Z,26.16
2018-06-08T16:30:36.093Z,26.53
2018-06-08T16:33:04.015Z,26.43
2018-06-08T16:35:32.225Z,26.20
2018-06-08T16:37:59.858Z,25.79
2018-06-08T16:40:27.617Z,26.29
2018-06-08T16:42:55.235Z,26.87
2018-06-08T16:45:22.902Z,26.89
2018-06-08T16:47:50.491Z,27.09
2018-06-08T16:50:18.042Z,26.94
2018-06-08T16:52:45.578Z,26.98
2018-06-08T16:55:13.143Z,27.42
2018-06-08T16:57:40.754Z,27.62
2018-06-08T17:00:08.327Z,28.31
2018-06-08T17:02:35.890Z,28.87
2018-06-08T17:05:03.688Z,28.94
2018-06-08T17:07:31.333Z,28.46
2018-06-08T17:09:58.974Z,28.31
2018-06-08T17:12:26.520Z,27.68
2018-06-08T17:14:54.174Z,27.03
2018-06-08T17:17:21.705Z,27.03
2018-06-08T17:19:49.342Z,27.51
2018-06-08T17:22:16.901Z,27.47
2018-06-08T17:24:44.394Z,27.20
2018-06-08T17:27:11.986Z,27.83
2018-06-08T17:29:39.558Z,28.17
2018-06-08T17:32:07.102Z,28.22
2018-06-08T17:34:35.272Z,28.53
2018-06-08T17:37:03.153Z,28.29
2018-06-08T17:39:30.736Z,28.86
2018-06-08T17:41:58.307Z,29.40
2018-06-08T17:44:26.075Z,30.30
2018-06-08T17:46:53.762Z,29.99
2018-06-08T17:49:21.421Z,30.38
2018-06-08T17:51:49.119Z,30.97
2018-06-08T17:54:17.021Z,31.48
2018-06-08T17:56:45.187Z,31.66
2018-06-08T17:59:12.866Z,31.54
2018-06-08T18:01:40.578Z,31.60
2018-06-08T18:04:08.245Z,31.22
2018-06-08T18:06:35.928Z,32.07
2018-06-08T18:09:05.217Z,32.52
2018-06-08T18:11:32.849Z,32.65
2018-06-08T18:14:00.663Z,32.76
2018-06-08T18:16:28.286Z,33.20
2018-06-08T18:18:55.994Z,33.60
2018-06-08T18:21:23.873Z,33.58
2018-06-08T18:23:51.616Z,34.30
2018-06-08T18:26:19.257Z,34.24
2018-06-08T18:28:46.900Z,34.24
2018-06-08T18:31:14.653Z,34.97
2018-06-08T18:33:42.617Z,35.28
2018-06-08T18:36:10.246Z,34.85
2018-06-08T18:38:37.834Z,35.37
2018-06-08T18:41:05.523Z,35.89
2018-06-08T18:43:33.249Z,35.97
2018-06-08T18:46:01.085Z,36.52
2018-06-08T18:48:28.679Z,36.92
2018-06-08T18:50:56.433Z,36.65
2018-06-08T18:53:24.119Z,37.57
2018-06-08T18:55:51.875Z,37.73
2018-06-08T18:58:19.549Z,37.38
2018-06-08T19:00:47.265Z,37.71
2018-06-08T19:03:15.121Z,37.75
2018-06-08T19:05:42.726Z,37.90
2018-06-08T19:08:10.338Z,37.68
2018-06-08T19:10:38.058Z,37.85
2018-06-08T19:13:05.602Z,38.21
2018-06-08T19:15:33.126Z,36.92
2018-06-08T19:18:00.695Z,37.68
2018-06-08T19:20:28.258Z,37.78
2018-06-08T19:22:55.823Z,38.41
2018-06-08T19:25:23.341Z,38.01
2018-06-08T19:27:50.958Z,38.24
2018-06-08T19:30:18.470Z,38.18
2018-06-08T19:32:46.003Z,38.64
2018-06-08T19:35:13.648Z,38.54
2018-06-08T19:37:41.158Z,38.96
2018-06-08T19:40:08.725Z,39.57
2018-06-08T19:42:36.254Z,39.61
2018-06-08T19:45:03.986Z,39.84
2018-06-08T19:47:31.681Z,40.30
2018-06-08T19:49:59.209Z,40.97
2018-06-08T19:52:26.802Z,41.30
2018-06-08T19:54:54.342Z,41.24
2018-06-08T19:57:21.883Z,41.23
2018-06-08T19:59:49.398Z,41.63
2018-06-08T20:02:16.950Z,41.41
2018-06-08T20:04:44.450Z,41.66
2018-06-08T20:07:12.018Z,41.86
2018-06-08T20:09:39.526Z,40.77
2018-06-08T20:12:07.069Z,40.82
2018-06-08T20:14:34.573Z,40.45
2018-06-08T20:17:02.351Z,39.86
2018-06-08T20:19:29.905Z,40.11
2018-06-08T20:21:57.405Z,40.17
2018-06-08T20:24:24.982Z,39.53
2018-06-08T20:26:52.497Z,39.72
2018-06-08T20:29:20.759Z,39.46
2018-06-08T20:31:48.266Z,39.47
2018-06-08T20:34:15.821Z,39.83
2018-06-08T20:36:43.389Z,40.05
2018-06-08T20:39:10.925Z,40.04
2018-06-08T20:41:38.465Z,39.67
2018-06-08T20:44:06.023Z,40.03
2018-06-08T20:46:33.546Z,40.38
2018-06-08T20:49:01.155Z,40.39
2018-06-08T20:51:28.688Z,40.50
2018-06-08T20:53:56.209Z,40.29
2018-06-08T20:56:23.864Z,40.33
2018-06-08T20:58:51.944Z,40.14
2018-06-08T21:01:19.463Z,40.57
2018-06-08T21:03:47.038Z,41.00
2018-06-08T21:06:14.606Z,41.13
2018-06-08T21:08:42.170Z,41.10
2018-06-08T21:11:09.721Z,40.84
2018-06-08T21:13:37.271Z,41.41
2018-06-08T21:16:04.818Z,41.71
2018-06-08T21:18:32.359Z,41.36
2018-06-08T21:20:59.898Z,41.43
2018-06-08T21:23:27.446Z,41.87
2018-06-08T21:25:55.527Z,42.12
2018-06-08T21:28:23.065Z,41.79
2018-06-08T21:30:50.580Z,41.99
2018-06-08T21:33:18.142Z,42.06
2018-06-08T21:35:45.997Z,42.08
2018-06-08T21:38:13.503Z,42.17
2018-06-08T21:40:41.022Z,42.00
2018-06-08T21:43:08.579Z,42.04
2018-06-08T21:45:36.095Z,42.45
2018-06-08T21:48:03.667Z,42.18
2018-06-08T21:50:31.198Z,42.33
2018-06-08T21:52:58.777Z,42.85
2018-06-08T21:55:26.802Z,42.68
2018-06-08T21:57:54.337Z,42.77
2018-06-08T22:00:21.945Z,42.57
2018-06-08T22:02:49.466Z,42.78
2018-06-08T22:05:17.027Z,43.33
2018-06-08T22:07:44.540Z,43.27
2018-06-08T22:10:12.099Z,43.69
2018-06-08T22:12:39.672Z,43.63
2018-06-08T22:15:07.240Z,43.50
2018-06-08T22:17:34.746Z,43.69
2018-06-08T22:20:02.303Z,44.26
2018-06-08T22:22:29.850Z,44.53
2018-06-08T22:24:57.438Z,44.65
2018-06-08T22:27:24.970Z,45.03
2018-06-08T22:29:52.484Z,45.06
2018-06-08T22:32:20.084Z,45.08
2018-06-08T22:34:47.603Z,45.19
2018-06-08T22:37:15.146Z,44.86
2018-06-08T22:39:42.689Z,45.03
2018-06-08T22:42:10.266Z,45.86
2018-06-08T22:44:37.808Z,45.78
2018-06-08T22:47:05.354Z,45.38
2018-06-08T22:49:32.869Z,45.56
2018-06-08T22:52:00.393Z,45.81
2018-06-08T22:54:27.923Z,46.28
2018-06-08T22:56:55.429Z,45.59
2018-06-08T22:59:22.974Z,45.91
2018-06-08T23:01:50.509Z,46.59
2018-06-08T23:04:18.061Z,46.42
2018-06-08T23:06:45.574Z,46.35
2018-06-08T23:09:13.097Z,46.34
2018-06-08T23:11:40.631Z,46.96
2018-06-08T23:14:08.156Z,47.19
2018-06-08T23:16:35.702Z,47.12
2018-06-08T23:19:03.236Z,47.50
2018-06-08T23:21:30.814Z,46.97
2018-06-08T23:23:58.322Z,47.29
2018-06-08T23:26:25.860Z,47.51
2018-06-08T23:28:53.381Z,47.49
2018-06-08T23:31:20.895Z,47.57
2018-06-08T23:33:48.426Z,47.79
2018-06-08T23:36:15.954Z,48.09
2018-06-08T23:38:43.495Z,48.21
2018-06-08T23:41:11.005Z,48.80
2018-06-08T23:43:38.532Z,48.65
2018-06-08T23:46:06.058Z,48.04
2018-06-08T23:48:33.586Z,47.91
2018-06-08T23:51:01.107Z,48.67
2018-06-08T23:53:28.637Z,48.53
2018-06-08T23:55:56.223Z,48.73
2018-06-08T23:58:23.740Z,49.22
